createdAt,value
2018-07-07T00:01:23.703Z,2.27
2018-07-07T00:03:50.829Z,2.37
2018-07-07T00:06:18.102Z,2.27
2018-07-07T00:08:45.306Z,1.97
2018-07-07T00:11:12.540Z,2.50
2018-07-07T00:13:39.713Z,2.30
2018-07-07T00:16:06.903Z,2.10
2018-07-07T00:18:34.089Z,1.90
2018-07-07T00:21:01.325Z,2.30
2018-07-07T00:23:28.920Z,2.00
2018-07-07T00:25:56.141Z,2.37
2018-07-07T00:28:23.396Z,2.90
2018-07-07T00:30:50.661Z,2.00
2018-07-07T00:33:17.783Z,2.10
2018-07-07T00:35:49.790Z,2.23
2018-07-07T00:38:16.915Z,2.57
2018-07-07T00:40:44.052Z,2.60
2018-07-07T00:43:11.913Z,2.50
2018-07-07T00:45:39.015Z,2.50
2018-07-07T00:48:06.170Z,2.77
2018-07-07T00:50:33.335Z,2.27
2018-07-07T00:53:00.556Z,2.03
2018-07-07T00:55:28.021Z,2.47
2018-07-07T00:57:55.206Z,2.03
2018-07-07T01:00:22.393Z,2.00
2018-07-07T01:02:49.572Z,2.10
2018-07-07T01:05:28.426Z,2.43
2018-07-07T01:07:55.581Z,2.30
2018-07-07T01:10:22.917Z,2.43
2018-07-07T01:12:50.237Z,2.17
2018-07-07T01:15:17.392Z,2.10
2018-07-07T01:17:44.537Z,1.97
2018-07-07T01:20:11.804Z,2.80
2018-07-07T01:22:38.916Z,2.20
2018-07-07T01:25:06.056Z,2.73
2018-07-07T01:27:33.905Z,2.40
2018-07-07T01:30:01.022Z,2.70
2018-07-07T01:32:28.169Z,2.90
2018-07-07T01:34:55.428Z,3.23
2018-07-07T01:37:22.571Z,2.20
2018-07-07T01:39:49.727Z,2.87
2018-07-07T01:42:16.883Z,2.60
2018-07-07T01:44:44.004Z,2.67
2018-07-07T01:47:11.121Z,2.53
2018-07-07T01:49:38.276Z,2.50
2018-07-07T01:52:05.407Z,2.60
2018-07-07T01:54:32.589Z,2.83
2018-07-07T01:56:59.739Z,2.00
2018-07-07T01:59:26.855Z,2.87
2018-07-07T02:01:54.108Z,3.07
2018-07-07T02:04:21.265Z,2.67
2018-07-07T02:06:48.535Z,2.70
2018-07-07T02:09:15.718Z,2.87
2018-07-07T02:11:42.859Z,3.43
2018-07-07T02:14:09.973Z,3.00
2018-07-07T02:16:37.106Z,3.20
2018-07-07T02:19:04.427Z,3.20
2018-07-07T02:21:31.623Z,3.43
2018-07-07T02:23:58.765Z,2.97
2018-07-07T02:26:26.036Z,2.57
2018-07-07T02:28:53.155Z,2.90
2018-07-07T02:31:20.321Z,2.93
2018-07-07T02:33:47.584Z,2.60
2018-07-07T02:36:14.721Z,3.37
2018-07-07T02:38:41.849Z,3.17
2018-07-07T02:41:09.120Z,3.53
2018-07-07T02:43:36.246Z,3.60
2018-07-07T02:46:03.405Z,3.00
2018-07-07T02:48:30.627Z,3.20
2018-07-07T02:50:57.765Z,3.33
2018-07-07T02:53:24.932Z,3.90
2018-07-07T02:55:52.144Z,3.47
2018-07-07T02:58:19.325Z,3.30
2018-07-07T03:00:46.676Z,3.90
2018-07-07T03:03:13.940Z,3.77
2018-07-07T03:05:41.085Z,3.80
2018-07-07T03:08:08.228Z,3.20
2018-07-07T03:10:35.502Z,4.07
2018-07-07T03:13:02.748Z,3.50
2018-07-07T03:15:30.000Z,3.57
2018-07-07T03:17:57.260Z,3.93
2018-07-07T03:20:24.485Z,3.60
2018-07-07T03:22:51.629Z,3.33
2018-07-07T03:25:19.674Z,3.43
2018-07-07T03:27:46.821Z,3.17
2018-07-07T03:30:13.944Z,4.47
2018-07-07T03:32:41.101Z,3.53
2018-07-07T03:35:08.852Z,4.37
2018-07-07T03:37:36.571Z,3.20
2018-07-07T03:40:03.930Z,3.93
2018-07-07T03:42:31.022Z,3.87
2018-07-07T03:44:58.183Z,3.53
2018-07-07T03:47:25.437Z,4.17
2018-07-07T03:49:52.687Z,3.73
2018-07-07T03:52:19.827Z,4.00
2018-07-07T03:54:47.081Z,3.63
2018-07-07T03:57:14.276Z,3.40
2018-07-07T03:59:41.381Z,3.37
2018-07-07T04:02:09.023Z,3.77
2018-07-07T04:04:37.925Z,4.08
2018-07-07T04:07:05.480Z,3.70
2018-07-07T04:09:32.659Z,3.73
2018-07-07T04:11:59.809Z,3.83
2018-07-07T04:14:26.974Z,3.60
2018-07-07T04:16:54.289Z,3.33
2018-07-07T04:19:21.436Z,3.37
2018-07-07T04:21:48.588Z,4.13
2018-07-07T04:24:15.860Z,3.83
2018-07-07T04:26:42.974Z,3.63
2018-07-07T04:29:10.108Z,3.43
2018-07-07T04:31:37.292Z,3.60
2018-07-07T04:34:04.633Z,3.87
2018-07-07T04:36:31.755Z,3.77
2018-07-07T04:38:58.972Z,3.67
2018-07-07T04:41:26.097Z,4.13
2018-07-07T04:43:53.227Z,3.33
2018-07-07T04:46:20.475Z,3.60
2018-07-07T04:48:47.604Z,3.47
2018-07-07T04:51:14.732Z,3.67
2018-07-07T04:53:41.969Z,3.87
2018-07-07T04:56:09.119Z,3.40
2018-07-07T04:58:36.312Z,3.80
2018-07-07T05:01:03.571Z,4.50
2018-07-07T05:03:30.671Z,3.63
2018-07-07T05:05:57.828Z,3.67
2018-07-07T05:08:25.032Z,3.70
2018-07-07T05:10:52.184Z,3.30
2018-07-07T05:13:19.298Z,3.97
2018-07-07T05:15:46.524Z,3.10
2018-07-07T05:18:13.625Z,3.70
2018-07-07T05:20:41.775Z,3.40
2018-07-07T05:23:09.054Z,3.63
2018-07-07T05:25:36.197Z,3.53
2018-07-07T05:28:03.386Z,3.63
2018-07-07T05:30:30.669Z,3.47
2018-07-07T05:32:57.836Z,3.70
2018-07-07T05:35:25.012Z,3.67
2018-07-07T05:37:52.226Z,3.93
2018-07-07T05:40:19.356Z,4.07
2018-07-07T05:42:46.489Z,3.70
2018-07-07T05:45:13.685Z,3.37
2018-07-07T05:47:40.799Z,3.23
2018-07-07T05:50:08.047Z,3.77
2018-07-07T05:52:35.364Z,3.13
2018-07-07T05:55:02.496Z,3.30
2018-07-07T05:57:29.711Z,3.40
2018-07-07T05:59:56.891Z,3.10
2018-07-07T06:02:24.064Z,4.00
2018-07-07T06:04:51.176Z,3.53
2018-07-07T06:07:18.421Z,3.30
2018-07-07T06:09:45.631Z,3.47
2018-07-07T06:12:12.777Z,3.17
2018-07-07T06:14:40.035Z,3.50
2018-07-07T06:17:07.193Z,3.30
2018-07-07T06:19:34.381Z,3.27
2018-07-07T06:22:01.552Z,3.00
2018-07-07T06:24:28.736Z,3.87
2018-07-07T06:26:55.886Z,3.40
2018-07-07T06:29:23.793Z,2.97
2018-07-07T06:31:51.024Z,3.37
2018-07-07T06:34:18.175Z,2.97
2018-07-07T06:36:45.343Z,3.10
2018-07-07T06:39:12.588Z,3.87
2018-07-07T06:41:39.705Z,3.33
2018-07-07T06:44:06.907Z,3.30
2018-07-07T06:46:34.098Z,3.27
2018-07-07T06:49:01.224Z,3.23
2018-07-07T06:51:28.373Z,3.83
2018-07-07T06:53:55.823Z,3.50
2018-07-07T06:56:22.917Z,3.37
2018-07-07T06:58:50.116Z,3.30
2018-07-07T07:01:17.325Z,3.57
2018-07-07T07:03:44.478Z,3.67
2018-07-07T07:06:11.642Z,4.07
2018-07-07T07:08:39.065Z,3.10
2018-07-07T07:11:06.358Z,3.00
2018-07-07T07:13:33.607Z,3.40
2018-07-07T07:16:01.663Z,3.07
2018-07-07T07:18:28.796Z,3.17
2018-07-07T07:20:56.009Z,3.50
2018-07-07T07:23:23.224Z,3.10
2018-07-07T07:25:50.475Z,2.93
2018-07-07T07:28:17.673Z,2.73
2018-07-07T07:30:44.786Z,3.10
2018-07-07T07:33:11.932Z,2.90
2018-07-07T07:35:39.239Z,3.23
2018-07-07T07:38:06.892Z,2.87
2018-07-07T07:40:34.078Z,3.10
2018-07-07T07:43:01.257Z,3.47
2018-07-07T07:45:28.376Z,3.07
2018-07-07T07:47:55.580Z,3.33
2018-07-07T07:50:24.144Z,2.77
2018-07-07T07:52:51.397Z,3.00
2018-07-07T07:55:18.571Z,2.40
2018-07-07T07:57:45.752Z,3.27
2018-07-07T08:00:12.997Z,3.70
2018-07-07T08:02:40.179Z,3.17
2018-07-07T08:05:07.503Z,4.00
2018-07-07T08:07:35.558Z,2.83
2018-07-07T08:10:02.684Z,2.90
2018-07-07T08:12:29.923Z,3.10
2018-07-07T08:14:57.109Z,3.07
2018-07-07T08:17:24.289Z,2.97
2018-07-07T08:19:52.315Z,2.83
2018-07-07T08:22:19.453Z,2.80
2018-07-07T08:24:46.866Z,3.17
2018-07-07T08:27:14.755Z,3.20
2018-07-07T08:29:42.024Z,2.50
2018-07-07T08:32:09.231Z,2.80
2018-07-07T08:34:36.522Z,2.70
2018-07-07T08:37:03.946Z,2.90
2018-07-07T08:39:31.154Z,2.67
2018-07-07T08:41:58.373Z,2.77
2018-07-07T08:44:25.622Z,2.70
2018-07-07T08:46:52.764Z,2.87
2018-07-07T08:49:20.398Z,2.50
2018-07-07T08:51:47.614Z,2.80
2018-07-07T08:54:14.832Z,2.80
2018-07-07T08:56:42.082Z,2.47
2018-07-07T08:59:09.279Z,2.60
2018-07-07T09:01:36.590Z,2.50
2018-07-07T09:04:03.902Z,2.37
2018-07-07T09:06:31.052Z,2.47
2018-07-07T09:08:58.268Z,2.73
2018-07-07T09:11:25.488Z,3.30
2018-07-07T09:13:52.692Z,2.87
2018-07-07T09:16:19.870Z,2.30
2018-07-07T09:18:47.090Z,2.97
2018-07-07T09:21:14.218Z,2.67
2018-07-07T09:23:41.352Z,2.40
2018-07-07T09:26:09.875Z,2.80
2018-07-07T09:28:37.054Z,3.20
2018-07-07T09:31:04.168Z,2.27
2018-07-07T09:33:31.325Z,1.90
2018-07-07T09:35:58.528Z,2.33
2018-07-07T09:38:25.733Z,2.20
2018-07-07T09:40:52.977Z,2.40
2018-07-07T09:43:20.176Z,2.57
2018-07-07T09:45:47.454Z,2.10
2018-07-07T09:48:14.633Z,2.30
2018-07-07T09:50:41.896Z,2.50
2018-07-07T09:53:09.112Z,2.23
2018-07-07T09:55:36.278Z,2.67
2018-07-07T09:58:03.383Z,2.00
2018-07-07T10:00:36.384Z,1.90
2018-07-07T10:03:03.692Z,2.57
2018-07-07T10:05:31.001Z,2.03
2018-07-07T10:07:58.149Z,2.33
2018-07-07T10:10:25.281Z,2.37
2018-07-07T10:12:52.418Z,1.90
2018-07-07T10:15:19.726Z,1.70
2018-07-07T10:17:47.017Z,1.90
2018-07-07T10:20:14.230Z,1.77
2018-07-07T10:22:41.419Z,2.20
2018-07-07T10:25:08.555Z,1.93
2018-07-07T10:27:35.802Z,2.13
2018-07-07T10:30:03.093Z,2.10
2018-07-07T10:32:30.228Z,1.97
2018-07-07T10:34:57.583Z,2.27
2018-07-07T10:37:24.820Z,2.20
2018-07-07T10:39:52.066Z,1.90
2018-07-07T10:42:19.289Z,2.20
2018-07-07T10:44:46.459Z,2.07
2018-07-07T10:47:13.590Z,2.00
2018-07-07T10:49:41.643Z,1.90
2018-07-07T10:52:09.242Z,1.70
2018-07-07T10:54:36.449Z,2.13
2018-07-07T10:57:03.688Z,2.17
2018-07-07T10:59:30.875Z,1.87
2018-07-07T11:01:58.016Z,1.83
2018-07-07T11:04:25.245Z,1.70
2018-07-07T11:06:52.540Z,2.00
2018-07-07T11:09:19.744Z,1.57
2018-07-07T11:11:46.931Z,1.90
2018-07-07T11:14:14.079Z,1.87
2018-07-07T11:16:41.279Z,1.80
2018-07-07T11:19:08.476Z,1.70
2018-07-07T11:21:35.672Z,1.60
2018-07-07T11:24:02.920Z,1.63
2018-07-07T11:26:30.049Z,1.60
2018-07-07T11:28:57.299Z,1.77
2018-07-07T11:31:24.519Z,1.73
2018-07-07T11:33:52.113Z,1.97
2018-07-07T11:36:19.337Z,1.90
2018-07-07T11:38:46.471Z,2.20
2018-07-07T11:41:17.779Z,1.63
2018-07-07T11:43:45.427Z,1.70
2018-07-07T11:46:12.604Z,2.20
2018-07-07T11:48:39.778Z,2.00
2018-07-07T11:51:06.977Z,1.83
2018-07-07T11:53:34.244Z,1.83
2018-07-07T11:56:01.439Z,1.80
2018-07-07T11:58:28.964Z,2.20
2018-07-07T12:00:56.149Z,1.87
2018-07-07T12:03:23.332Z,1.90
2018-07-07T12:05:50.691Z,1.67
2018-07-07T12:08:17.912Z,2.03
2018-07-07T12:10:45.073Z,1.87
2018-07-07T12:13:12.278Z,2.00
2018-07-07T12:15:39.482Z,1.73
2018-07-07T12:18:06.704Z,1.70
2018-07-07T12:20:33.966Z,1.80
2018-07-07T12:23:01.120Z,1.57
2018-07-07T12:25:28.291Z,1.47
2018-07-07T12:27:55.460Z,1.80
2018-07-07T12:30:23.510Z,1.60
2018-07-07T12:32:50.693Z,1.63
2018-07-07T12:35:18.243Z,1.37
2018-07-07T12:37:45.343Z,1.57
2018-07-07T12:40:12.505Z,1.80
2018-07-07T12:42:39.836Z,1.90
2018-07-07T12:45:07.064Z,1.50
2018-07-07T12:47:34.207Z,1.90
2018-07-07T12:50:01.466Z,1.40
2018-07-07T12:52:28.580Z,1.33
2018-07-07T12:54:55.798Z,1.50
2018-07-07T12:57:23.020Z,1.77
2018-07-07T12:59:50.140Z,1.37
2018-07-07T13:02:17.292Z,1.37
2018-07-07T13:04:44.497Z,1.33
2018-07-07T13:07:11.709Z,1.57
2018-07-07T13:09:38.975Z,1.40
2018-07-07T13:12:06.268Z,1.30
2018-07-07T13:14:33.535Z,1.47
2018-07-07T13:17:00.743Z,1.47
2018-07-07T13:19:28.024Z,1.62
2018-07-07T13:21:55.206Z,1.57
2018-07-07T13:24:22.373Z,1.50
2018-07-07T13:26:49.566Z,1.60
2018-07-07T13:29:16.712Z,1.67
2018-07-07T13:31:45.054Z,1.63
2018-07-07T13:34:12.595Z,1.70
2018-07-07T13:36:39.731Z,2.07
2018-07-07T13:39:07.156Z,1.60
2018-07-07T13:41:34.405Z,1.90
2018-07-07T13:44:01.627Z,1.40
2018-07-07T13:46:28.824Z,1.57
2018-07-07T13:48:56.039Z,1.50
2018-07-07T13:51:23.160Z,1.60
2018-07-07T13:53:50.273Z,1.60
2018-07-07T13:56:18.435Z,1.60
2018-07-07T13:58:45.664Z,2.00
2018-07-07T14:01:12.834Z,1.37
2018-07-07T14:03:40.062Z,1.40
2018-07-07T14:06:07.222Z,1.53
2018-07-07T14:08:34.576Z,2.10
2018-07-07T14:11:02.198Z,1.80
2018-07-07T14:13:30.389Z,1.50
2018-07-07T14:15:57.551Z,1.50
2018-07-07T14:18:24.741Z,1.90
2018-07-07T14:20:52.025Z,1.60
2018-07-07T14:23:19.222Z,1.63
2018-07-07T14:25:46.399Z,1.60
2018-07-07T14:28:13.643Z,1.90
2018-07-07T14:30:40.795Z,2.00
2018-07-07T14:33:08.530Z,1.83
2018-07-07T14:35:35.740Z,2.07
2018-07-07T14:38:02.837Z,1.37
2018-07-07T14:40:30.041Z,1.60
2018-07-07T14:42:57.247Z,1.67
2018-07-07T14:45:29.769Z,1.40
2018-07-07T14:47:58.376Z,1.43
2018-07-07T14:50:25.816Z,1.77
2018-07-07T14:52:53.320Z,1.70
2018-07-07T14:55:21.869Z,1.50
2018-07-07T14:57:49.137Z,1.70
2018-07-07T15:00:18.280Z,1.53
2018-07-07T15:02:46.811Z,1.80
2018-07-07T15:05:13.959Z,2.10
2018-07-07T15:07:41.211Z,2.07
2018-07-07T15:10:09.153Z,1.33
2018-07-07T15:12:36.413Z,1.63
2018-07-07T15:15:03.730Z,1.70
2018-07-07T15:17:30.887Z,1.80
2018-07-07T15:19:58.070Z,1.73
2018-07-07T15:22:25.356Z,1.55
2018-07-07T15:24:52.544Z,1.47
2018-07-07T15:27:19.692Z,1.57
2018-07-07T15:29:47.016Z,1.70
2018-07-07T15:32:14.148Z,1.82
2018-07-07T15:34:41.441Z,1.60
2018-07-07T15:37:08.659Z,1.67
2018-07-07T15:39:35.832Z,1.67
2018-07-07T15:42:03.064Z,2.10
2018-07-07T15:44:30.334Z,1.77
2018-07-07T15:46:58.307Z,2.15
2018-07-07T15:49:25.565Z,1.70
2018-07-07T15:51:52.745Z,1.65
2018-07-07T15:54:19.991Z,1.37
2018-07-07T15:56:47.107Z,2.15
2018-07-07T15:59:14.339Z,1.90
2018-07-07T16:01:41.560Z,2.05
2018-07-07T16:04:08.676Z,2.00
2018-07-07T16:06:36.750Z,1.80
2018-07-07T16:09:05.341Z,1.82
2018-07-07T16:11:32.624Z,2.55
2018-07-07T16:13:59.832Z,2.30
2018-07-07T16:16:26.969Z,3.33
2018-07-07T16:18:54.088Z,2.50
2018-07-07T16:21:21.485Z,1.80
2018-07-07T16:23:48.932Z,1.80
2018-07-07T16:26:16.405Z,2.05
2018-07-07T16:28:43.596Z,2.00
2018-07-07T16:31:10.714Z,2.20
2018-07-07T16:33:37.956Z,2.20
2018-07-07T16:36:05.225Z,2.08
2018-07-07T16:38:32.462Z,2.05
2018-07-07T16:40:59.761Z,2.15
2018-07-07T16:43:27.397Z,1.77
2018-07-07T16:45:54.644Z,2.20
2018-07-07T16:48:21.996Z,1.90
2018-07-07T16:50:49.463Z,2.08
2018-07-07T16:53:16.700Z,1.50
2018-07-07T16:55:45.484Z,1.70
2018-07-07T16:58:13.319Z,1.67
2018-07-07T17:00:40.568Z,1.90
2018-07-07T17:03:07.816Z,1.80
2018-07-07T17:05:35.125Z,1.77
2018-07-07T17:08:02.732Z,1.70
2018-07-07T17:10:29.902Z,1.50
2018-07-07T17:12:57.544Z,1.50
2018-07-07T17:15:24.753Z,1.50
2018-07-07T17:17:51.907Z,1.67
2018-07-07T17:20:19.114Z,1.83
2018-07-07T17:22:47.248Z,1.63
2018-07-07T17:25:14.568Z,1.95
2018-07-07T17:27:42.556Z,1.67
2018-07-07T17:30:09.783Z,1.83
2018-07-07T17:32:37.050Z,1.67
2018-07-07T17:35:04.271Z,1.87
2018-07-07T17:37:31.493Z,2.13
2018-07-07T17:39:58.732Z,1.70
2018-07-07T17:42:26.591Z,1.50
2018-07-07T17:44:53.785Z,1.80
2018-07-07T17:47:21.083Z,1.80
2018-07-07T17:49:48.411Z,1.63
2018-07-07T17:52:15.670Z,1.90
2018-07-07T17:54:42.970Z,1.90
2018-07-07T17:57:10.150Z,1.70
2018-07-07T17:59:37.880Z,1.70
2018-07-07T18:02:05.263Z,1.87
2018-07-07T18:04:32.541Z,1.90
2018-07-07T18:06:59.673Z,1.77
2018-07-07T18:09:26.837Z,1.50
2018-07-07T18:11:54.133Z,1.63
2018-07-07T18:14:22.072Z,1.80
2018-07-07T18:16:49.296Z,1.90
2018-07-07T18:19:16.503Z,1.90
2018-07-07T18:21:43.605Z,1.70
2018-07-07T18:24:10.786Z,1.70
2018-07-07T18:26:38.084Z,2.27
2018-07-07T18:29:05.303Z,1.87
2018-07-07T18:31:32.504Z,1.93
2018-07-07T18:33:59.670Z,1.77
2018-07-07T18:36:26.865Z,1.67
2018-07-07T18:38:54.107Z,1.77
2018-07-07T18:41:21.351Z,2.00
2018-07-07T18:43:48.498Z,1.83
2018-07-07T18:46:15.619Z,1.80
2018-07-07T18:48:42.812Z,1.87
2018-07-07T18:51:10.009Z,1.60
2018-07-07T18:53:37.443Z,2.00
2018-07-07T18:56:04.947Z,2.27
2018-07-07T18:58:32.146Z,2.30
2018-07-07T19:00:59.300Z,1.60
2018-07-07T19:03:26.572Z,1.80
2018-07-07T19:05:53.757Z,1.83
2018-07-07T19:08:20.900Z,2.10
2018-07-07T19:10:48.508Z,1.60
2018-07-07T19:13:15.619Z,1.60
2018-07-07T19:15:46.788Z,1.70
2018-07-07T19:18:15.237Z,2.03
2018-07-07T19:20:48.297Z,2.00
2018-07-07T19:23:21.101Z,1.60
2018-07-07T19:25:54.986Z,1.70
2018-07-07T19:28:22.224Z,1.80
2018-07-07T19:30:49.375Z,1.98
2018-07-07T19:33:22.209Z,1.83
2018-07-07T19:35:55.228Z,1.87
2018-07-07T19:38:22.434Z,1.97
2018-07-07T19:40:49.675Z,2.07
2018-07-07T19:43:16.885Z,2.00
2018-07-07T19:45:44.467Z,1.77
2018-07-07T19:48:11.790Z,2.07
2018-07-07T19:50:39.092Z,1.93
2018-07-07T19:53:06.299Z,2.10
2018-07-07T19:55:33.453Z,1.60
2018-07-07T19:58:00.601Z,2.10
2018-07-07T20:00:27.937Z,2.00
2018-07-07T20:02:55.128Z,2.40
2018-07-07T20:05:22.284Z,2.70
2018-07-07T20:07:49.563Z,2.67
2018-07-07T20:10:16.670Z,1.80
2018-07-07T20:12:43.876Z,2.20
2018-07-07T20:15:11.485Z,2.23
2018-07-07T20:18:05.211Z,2.23
2018-07-07T20:20:38.255Z,2.20
2018-07-07T20:23:13.305Z,1.87
2018-07-07T20:25:40.639Z,2.20
2018-07-07T20:28:14.215Z,2.17
2018-07-07T20:30:41.423Z,2.20
2018-07-07T20:33:08.747Z,2.03
2018-07-07T20:35:41.468Z,2.03
2018-07-07T20:38:08.808Z,2.43
2018-07-07T20:40:36.065Z,2.20
2018-07-07T20:43:03.278Z,2.20
2018-07-07T20:45:30.999Z,2.20
2018-07-07T20:47:58.227Z,1.97
2018-07-07T20:50:25.825Z,2.23
2018-07-07T20:52:52.987Z,2.23
2018-07-07T20:55:20.409Z,3.23
2018-07-07T20:57:47.718Z,3.10
2018-07-07T21:00:15.332Z,2.60
2018-07-07T21:02:42.452Z,2.60
2018-07-07T21:05:09.670Z,2.70
2018-07-07T21:07:36.817Z,2.43
2018-07-07T21:10:04.053Z,2.20
2018-07-07T21:12:31.433Z,2.17
2018-07-07T21:14:58.661Z,2.20
2018-07-07T21:17:25.827Z,2.37
2018-07-07T21:19:53.508Z,2.17
2018-07-07T21:22:20.716Z,2.63
2018-07-07T21:24:47.993Z,2.57
2018-07-07T21:27:15.184Z,2.10
2018-07-07T21:29:42.380Z,2.50
2018-07-07T21:32:09.595Z,2.50
2018-07-07T21:34:36.943Z,2.43
2018-07-07T21:37:04.194Z,2.58
2018-07-07T21:39:31.345Z,1.97
2018-07-07T21:41:58.527Z,2.40
2018-07-07T21:44:25.641Z,2.17
2018-07-07T21:46:52.904Z,2.60
2018-07-07T21:49:20.572Z,2.50
2018-07-07T21:51:47.701Z,2.20
2018-07-07T21:54:14.852Z,2.00
2018-07-07T21:56:42.076Z,2.20
2018-07-07T21:59:15.784Z,2.67
2018-07-07T22:01:55.990Z,2.17
2018-07-07T22:04:29.558Z,2.00
2018-07-07T22:07:02.726Z,2.20
2018-07-07T22:09:31.036Z,2.27
2018-07-07T22:11:58.712Z,2.33
2018-07-07T22:14:25.889Z,1.80
2018-07-07T22:16:53.343Z,2.30
2018-07-07T22:19:20.539Z,2.10
2018-07-07T22:21:57.139Z,2.33
2018-07-07T22:24:24.310Z,2.40
2018-07-07T22:26:53.936Z,2.00
2018-07-07T22:29:21.113Z,2.10
2018-07-07T22:31:48.364Z,2.37
2018-07-07T22:34:15.473Z,2.13
2018-07-07T22:36:42.716Z,2.30
2018-07-07T22:39:09.940Z,2.23
2018-07-07T22:41:51.022Z,2.47
2018-07-07T22:44:18.456Z,1.90
2018-07-07T22:46:45.601Z,2.13
2018-07-07T22:49:12.788Z,2.40
2018-07-07T22:51:42.322Z,2.03
2018-07-07T22:54:09.534Z,2.00
2018-07-07T22:56:36.871Z,2.30
2018-07-07T22:59:04.058Z,2.17
2018-07-07T23:01:31.231Z,2.37
2018-07-07T23:03:58.498Z,1.80
2018-07-07T23:06:25.620Z,2.30
2018-07-07T23:08:52.832Z,1.97
2018-07-07T23:11:20.065Z,2.30
2018-07-07T23:13:47.223Z,1.97
2018-07-07T23:16:14.414Z,2.53
2018-07-07T23:18:41.599Z,2.33
2018-07-07T23:21:08.834Z,2.00
2018-07-07T23:23:36.020Z,2.70
2018-07-07T23:26:03.845Z,2.37
2018-07-07T23:28:31.063Z,2.60
2018-07-07T23:30:58.247Z,2.53
2018-07-07T23:33:25.620Z,2.87
2018-07-07T23:35:52.810Z,2.23
2018-07-07T23:38:19.930Z,2.20
2018-07-07T23:40:47.116Z,2.40
2018-07-07T23:43:14.247Z,2.37
2018-07-07T23:45:41.511Z,2.83
2018-07-07T23:48:08.756Z,2.50
2018-07-07T23:50:35.905Z,2.23
2018-07-07T23:53:03.019Z,2.37
2018-07-07T23:55:30.195Z,2.60
2018-07-07T23:57:57.438Z,2.30
